sensor_id;sensor_type;location;lat;lon;timestamp;pressure;altitude;pressure_sealevel;temperature;humidity
84524;BME280;74765;44.538;18.668;2024-03-22T00:01:50;99210.47;;;12.91;43.03
84524;BME280;74765;44.538;18.668;2024-03-22T00:04:17;99214.13;;;12.11;44.63
84524;BME280;74765;44.538;18.668;2024-03-22T00:06:43;99216.03;;;12.96;42.83
84524;BME280;74765;44.538;18.668;2024-03-22T00:09:10;99215.00;;;12.97;42.36
84524;BME280;74765;44.538;18.668;2024-03-22T00:11:37;99220.97;;;13.19;42.32
84524;BME280;74765;44.538;18.668;2024-03-22T00:14:03;99219.13;;;13.06;42.70
84524;BME280;74765;44.538;18.668;2024-03-22T00:16:29;99217.47;;;13.05;42.56
84524;BME280;74765;44.538;18.668;2024-03-22T00:18:55;99221.38;;;13.09;42.36
84524;BME280;74765;44.538;18.668;2024-03-22T00:21:24;99216.25;;;12.81;43.22
84524;BME280;74765;44.538;18.668;2024-03-22T00:23:50;99212.31;;;12.97;42.63
84524;BME280;74765;44.538;18.668;2024-03-22T00:26:16;99212.31;;;12.70;43.29
84524;BME280;74765;44.538;18.668;2024-03-22T00:28:42;99207.38;;;12.81;43.09
84524;BME280;74765;44.538;18.668;2024-03-22T00:31:08;99214.78;;;12.79;43.08
84524;BME280;74765;44.538;18.668;2024-03-22T00:33:34;99222.44;;;12.55;43.66
84524;BME280;74765;44.538;18.668;2024-03-22T00:36:00;99212.94;;;12.86;43.31
84524;BME280;74765;44.538;18.668;2024-03-22T00:38:26;99220.94;;;12.20;44.88
84524;BME280;74765;44.538;18.668;2024-03-22T00:40:52;99223.28;;;12.49;43.69
84524;BME280;74765;44.538;18.668;2024-03-22T00:43:17;99226.13;;;12.41;43.84
84524;BME280;74765;44.538;18.668;2024-03-22T00:45:43;99225.69;;;12.31;44.39
84524;BME280;74765;44.538;18.668;2024-03-22T00:48:09;99221.09;;;11.99;45.31
84524;BME280;74765;44.538;18.668;2024-03-22T00:50:35;99221.16;;;12.25;44.73
84524;BME280;74765;44.538;18.668;2024-03-22T00:53:00;99224.78;;;11.98;45.40
84524;BME280;74765;44.538;18.668;2024-03-22T00:55:28;99229.78;;;12.14;44.68
84524;BME280;74765;44.538;18.668;2024-03-22T00:57:54;99228.59;;;12.30;44.40
84524;BME280;74765;44.538;18.668;2024-03-22T01:00:20;99234.56;;;12.32;44.53
84524;BME280;74765;44.538;18.668;2024-03-22T01:02:46;99228.19;;;11.72;45.63
84524;BME280;74765;44.538;18.668;2024-03-22T01:05:12;99224.19;;;11.55;46.23
84524;BME280;74765;44.538;18.668;2024-03-22T01:07:38;99229.38;;;11.63;45.91
84524;BME280;74765;44.538;18.668;2024-03-22T01:10:04;99227.28;;;11.93;45.49
84524;BME280;74765;44.538;18.668;2024-03-22T01:12:30;99221.69;;;11.94;45.35
84524;BME280;74765;44.538;18.668;2024-03-22T01:14:56;99218.28;;;12.20;44.89
84524;BME280;74765;44.538;18.668;2024-03-22T01:17:22;99220.66;;;11.95;45.33
84524;BME280;74765;44.538;18.668;2024-03-22T01:19:48;99210.16;;;11.87;45.24
84524;BME280;74765;44.538;18.668;2024-03-22T01:22:14;99202.94;;;11.94;45.20
84524;BME280;74765;44.538;18.668;2024-03-22T01:24:40;99203.31;;;11.84;45.77
84524;BME280;74765;44.538;18.668;2024-03-22T01:27:06;99201.19;;;12.34;44.60
84524;BME280;74765;44.538;18.668;2024-03-22T01:29:31;99207.97;;;12.30;44.74
84524;BME280;74765;44.538;18.668;2024-03-22T01:31:58;99210.44;;;12.25;44.53
84524;BME280;74765;44.538;18.668;2024-03-22T01:34:24;99207.31;;;12.15;45.05
84524;BME280;74765;44.538;18.668;2024-03-22T01:36:51;99210.00;;;12.15;44.54
84524;BME280;74765;44.538;18.668;2024-03-22T01:39:20;99208.78;;;12.24;44.46
84524;BME280;74765;44.538;18.668;2024-03-22T01:41:49;99214.75;;;12.26;44.32
84524;BME280;74765;44.538;18.668;2024-03-22T01:44:15;99215.38;;;12.15;44.61
84524;BME280;74765;44.538;18.668;2024-03-22T01:46:41;99209.94;;;11.95;44.96
84524;BME280;74765;44.538;18.668;2024-03-22T01:49:12;99197.44;;;11.61;45.64
84524;BME280;74765;44.538;18.668;2024-03-22T01:51:42;99201.63;;;11.29;46.34
84524;BME280;74765;44.538;18.668;2024-03-22T01:54:09;99209.59;;;11.23;47.06
84524;BME280;74765;44.538;18.668;2024-03-22T01:56:39;99201.50;;;11.51;45.77
84524;BME280;74765;44.538;18.668;2024-03-22T01:59:06;99200.06;;;11.48;45.87
84524;BME280;74765;44.538;18.668;2024-03-22T02:01:32;99200.84;;;11.35;46.27
84524;BME280;74765;44.538;18.668;2024-03-22T02:03:58;99208.50;;;11.45;45.91
84524;BME280;74765;44.538;18.668;2024-03-22T02:06:24;99204.16;;;11.85;44.80
84524;BME280;74765;44.538;18.668;2024-03-22T02:08:50;99204.59;;;11.95;44.62
84524;BME280;74765;44.538;18.668;2024-03-22T02:11:15;99206.63;;;11.87;44.87
84524;BME280;74765;44.538;18.668;2024-03-22T02:13:41;99200.28;;;12.01;44.54
84524;BME280;74765;44.538;18.668;2024-03-22T02:16:09;99206.44;;;11.95;44.71
84524;BME280;74765;44.538;18.668;2024-03-22T02:18:35;99208.72;;;11.98;44.58
84524;BME280;74765;44.538;18.668;2024-03-22T02:21:00;99212.28;;;12.11;44.33
84524;BME280;74765;44.538;18.668;2024-03-22T02:23:33;99211.44;;;12.17;44.29
84524;BME280;74765;44.538;18.668;2024-03-22T02:26:00;99214.75;;;12.19;44.28
84524;BME280;74765;44.538;18.668;2024-03-22T02:28:26;99205.25;;;12.10;44.81
84524;BME280;74765;44.538;18.668;2024-03-22T02:30:52;99214.00;;;11.37;46.03
84524;BME280;74765;44.538;18.668;2024-03-22T02:33:18;99206.19;;;11.76;45.63
84524;BME280;74765;44.538;18.668;2024-03-22T02:35:46;99212.13;;;12.39;43.23
84524;BME280;74765;44.538;18.668;2024-03-22T02:38:12;99218.94;;;12.68;43.17
84524;BME280;74765;44.538;18.668;2024-03-22T02:40:38;99225.31;;;12.60;43.41
84524;BME280;74765;44.538;18.668;2024-03-22T02:43:04;99217.41;;;12.13;44.78
84524;BME280;74765;44.538;18.668;2024-03-22T02:45:30;99217.47;;;12.46;44.09
84524;BME280;74765;44.538;18.668;2024-03-22T02:47:56;99217.69;;;12.70;43.33
84524;BME280;74765;44.538;18.668;2024-03-22T02:50:22;99214.81;;;12.52;44.04
84524;BME280;74765;44.538;18.668;2024-03-22T02:52:48;99217.69;;;12.77;43.12
84524;BME280;74765;44.538;18.668;2024-03-22T02:55:14;99215.81;;;12.64;43.30
84524;BME280;74765;44.538;18.668;2024-03-22T02:57:40;99223.06;;;12.70;43.41
84524;BME280;74765;44.538;18.668;2024-03-22T03:00:06;99228.81;;;12.74;43.53
84524;BME280;74765;44.538;18.668;2024-03-22T03:02:32;99222.88;;;12.59;43.63
84524;BME280;74765;44.538;18.668;2024-03-22T03:04:58;99229.44;;;12.30;44.63
84524;BME280;74765;44.538;18.668;2024-03-22T03:07:24;99225.91;;;12.36;44.46
84524;BME280;74765;44.538;18.668;2024-03-22T03:09:50;99223.91;;;12.78;43.29
84524;BME280;74765;44.538;18.668;2024-03-22T03:12:16;99221.59;;;12.75;43.58
84524;BME280;74765;44.538;18.668;2024-03-22T03:14:42;99229.66;;;12.88;43.29
84524;BME280;74765;44.538;18.668;2024-03-22T03:17:08;99231.09;;;12.44;44.13
84524;BME280;74765;44.538;18.668;2024-03-22T03:19:33;99222.03;;;12.78;43.58
84524;BME280;74765;44.538;18.668;2024-03-22T03:21:59;99230.69;;;12.54;43.65
84524;BME280;74765;44.538;18.668;2024-03-22T03:24:25;99232.69;;;12.19;45.17
84524;BME280;74765;44.538;18.668;2024-03-22T03:26:51;99225.47;;;12.26;44.76
84524;BME280;74765;44.538;18.668;2024-03-22T03:29:17;99229.81;;;12.27;44.32
84524;BME280;74765;44.538;18.668;2024-03-22T03:31:43;99224.28;;;12.61;43.78
84524;BME280;74765;44.538;18.668;2024-03-22T03:34:08;99229.03;;;12.40;43.91
84524;BME280;74765;44.538;18.668;2024-03-22T03:36:34;99228.00;;;12.47;43.79
84524;BME280;74765;44.538;18.668;2024-03-22T03:39:00;99230.69;;;12.47;43.83
84524;BME280;74765;44.538;18.668;2024-03-22T03:41:26;99234.00;;;12.49;44.26
84524;BME280;74765;44.538;18.668;2024-03-22T03:43:51;99229.47;;;12.63;43.84
84524;BME280;74765;44.538;18.668;2024-03-22T03:46:17;99239.50;;;12.21;44.88
84524;BME280;74765;44.538;18.668;2024-03-22T03:48:43;99242.84;;;12.50;43.97
84524;BME280;74765;44.538;18.668;2024-03-22T03:51:09;99242.66;;;12.71;43.83
84524;BME280;74765;44.538;18.668;2024-03-22T03:53:34;99243.78;;;11.96;44.88
84524;BME280;74765;44.538;18.668;2024-03-22T03:56:00;99245.53;;;12.43;44.35
84524;BME280;74765;44.538;18.668;2024-03-22T03:58:27;99244.53;;;12.70;43.54
84524;BME280;74765;44.538;18.668;2024-03-22T04:00:52;99248.00;;;12.64;43.49
84524;BME280;74765;44.538;18.668;2024-03-22T04:03:19;99251.19;;;12.07;44.75
84524;BME280;74765;44.538;18.668;2024-03-22T04:05:44;99249.03;;;12.50;43.99
84524;BME280;74765;44.538;18.668;2024-03-22T04:08:10;99254.44;;;12.63;43.67
84524;BME280;74765;44.538;18.668;2024-03-22T04:10:36;99257.41;;;11.26;46.96
84524;BME280;74765;44.538;18.668;2024-03-22T04:13:02;99254.97;;;12.26;44.46
84524;BME280;74765;44.538;18.668;2024-03-22T04:15:28;99254.78;;;12.41;44.05
84524;BME280;74765;44.538;18.668;2024-03-22T04:17:56;99264.78;;;11.93;44.97
84524;BME280;74765;44.538;18.668;2024-03-22T04:20:22;99262.00;;;12.40;44.20
84524;BME280;74765;44.538;18.668;2024-03-22T04:22:47;99274.94;;;12.17;44.61
84524;BME280;74765;44.538;18.668;2024-03-22T04:25:15;99265.63;;;12.00;44.89
84524;BME280;74765;44.538;18.668;2024-03-22T04:27:41;99269.72;;;11.20;46.82
84524;BME280;74765;44.538;18.668;2024-03-22T04:30:08;99270.28;;;11.50;46.58
84524;BME280;74765;44.538;18.668;2024-03-22T04:32:34;99266.13;;;12.30;44.50
84524;BME280;74765;44.538;18.668;2024-03-22T04:35:00;99273.63;;;12.67;43.54
84524;BME280;74765;44.538;18.668;2024-03-22T04:37:26;99265.75;;;12.46;44.25
84524;BME280;74765;44.538;18.668;2024-03-22T04:39:52;99266.81;;;12.58;44.21
84524;BME280;74765;44.538;18.668;2024-03-22T04:42:18;99263.28;;;12.64;44.34
84524;BME280;74765;44.538;18.668;2024-03-22T04:44:45;99265.78;;;12.65;44.40
84524;BME280;74765;44.538;18.668;2024-03-22T04:47:11;99267.03;;;12.96;43.64
84524;BME280;74765;44.538;18.668;2024-03-22T04:49:36;99270.53;;;13.09;43.24
84524;BME280;74765;44.538;18.668;2024-03-22T04:52:02;99268.06;;;12.95;43.60
84524;BME280;74765;44.538;18.668;2024-03-22T04:54:28;99274.25;;;12.62;44.38
84524;BME280;74765;44.538;18.668;2024-03-22T04:56:54;99278.19;;;12.73;43.85
84524;BME280;74765;44.538;18.668;2024-03-22T04:59:19;99280.84;;;12.80;44.12
84524;BME280;74765;44.538;18.668;2024-03-22T05:01:45;99282.94;;;12.78;44.00
84524;BME280;74765;44.538;18.668;2024-03-22T05:04:11;99282.94;;;12.78;44.14
84524;BME280;74765;44.538;18.668;2024-03-22T05:06:37;99288.28;;;13.04;43.29
84524;BME280;74765;44.538;18.668;2024-03-22T05:09:03;99287.25;;;12.79;43.84
84524;BME280;74765;44.538;18.668;2024-03-22T05:11:29;99282.28;;;12.76;43.83
84524;BME280;74765;44.538;18.668;2024-03-22T05:13:55;99283.72;;;13.57;42.51
84524;BME280;74765;44.538;18.668;2024-03-22T05:16:21;99286.75;;;13.74;42.26
84524;BME280;74765;44.538;18.668;2024-03-22T05:18:49;99284.41;;;13.20;42.56
84524;BME280;74765;44.538;18.668;2024-03-22T05:21:15;99288.22;;;13.70;42.23
84524;BME280;74765;44.538;18.668;2024-03-22T05:23:40;99290.97;;;14.59;39.70
84524;BME280;74765;44.538;18.668;2024-03-22T05:26:06;99286.13;;;15.42;38.09
84524;BME280;74765;44.538;18.668;2024-03-22T05:28:32;99293.31;;;14.73;39.72
84524;BME280;74765;44.538;18.668;2024-03-22T05:30:58;99289.59;;;16.22;36.99
84524;BME280;74765;44.538;18.668;2024-03-22T05:33:24;99294.63;;;16.66;34.90
84524;BME280;74765;44.538;18.668;2024-03-22T05:35:50;99291.66;;;17.56;33.92
84524;BME280;74765;44.538;18.668;2024-03-22T05:38:16;99296.41;;;18.23;32.86
84524;BME280;74765;44.538;18.668;2024-03-22T05:40:41;99306.75;;;17.86;33.56
84524;BME280;74765;44.538;18.668;2024-03-22T05:43:07;99311.56;;;17.84;33.58
84524;BME280;74765;44.538;18.668;2024-03-22T05:45:33;99308.00;;;18.92;31.97
84524;BME280;74765;44.538;18.668;2024-03-22T05:47:59;99312.69;;;19.30;31.35
84524;BME280;74765;44.538;18.668;2024-03-22T05:50:24;99310.56;;;18.42;32.51
84524;BME280;74765;44.538;18.668;2024-03-22T05:52:50;99321.56;;;17.72;33.28
84524;BME280;74765;44.538;18.668;2024-03-22T05:55:17;99317.28;;;17.30;33.86
84524;BME280;74765;44.538;18.668;2024-03-22T05:57:43;99321.56;;;16.84;35.70
84524;BME280;74765;44.538;18.668;2024-03-22T06:00:09;99317.44;;;16.82;35.12
84524;BME280;74765;44.538;18.668;2024-03-22T06:02:36;99320.66;;;17.02;35.04
84524;BME280;74765;44.538;18.668;2024-03-22T06:05:02;99313.81;;;16.88;34.75
84524;BME280;74765;44.538;18.668;2024-03-22T06:07:28;99319.06;;;16.71;35.50
84524;BME280;74765;44.538;18.668;2024-03-22T06:09:54;99310.59;;;16.49;35.58
84524;BME280;74765;44.538;18.668;2024-03-22T06:12:20;99308.34;;;16.16;36.29
84524;BME280;74765;44.538;18.668;2024-03-22T06:14:47;99313.28;;;16.19;36.41
84524;BME280;74765;44.538;18.668;2024-03-22T06:17:14;99306.25;;;16.78;35.04
84524;BME280;74765;44.538;18.668;2024-03-22T06:19:41;99304.59;;;17.42;35.03
84524;BME280;74765;44.538;18.668;2024-03-22T06:22:07;99311.09;;;17.76;34.36
84524;BME280;74765;44.538;18.668;2024-03-22T06:24:33;99308.88;;;18.24;33.04
84524;BME280;74765;44.538;18.668;2024-03-22T06:27:00;99311.22;;;17.81;34.33
84524;BME280;74765;44.538;18.668;2024-03-22T06:29:28;99304.47;;;17.83;34.12
84524;BME280;74765;44.538;18.668;2024-03-22T06:32:00;99303.25;;;18.14;34.20
84524;BME280;74765;44.538;18.668;2024-03-22T06:34:26;99298.41;;;17.65;34.15
84524;BME280;74765;44.538;18.668;2024-03-22T06:36:52;99305.34;;;17.72;34.48
84524;BME280;74765;44.538;18.668;2024-03-22T06:39:18;99311.44;;;17.56;35.16
84524;BME280;74765;44.538;18.668;2024-03-22T06:41:48;99311.44;;;17.68;35.45
84524;BME280;74765;44.538;18.668;2024-03-22T06:44:14;99313.69;;;18.34;33.91
84524;BME280;74765;44.538;18.668;2024-03-22T06:46:40;99320.34;;;19.00;33.42
84524;BME280;74765;44.538;18.668;2024-03-22T06:49:06;99313.44;;;19.09;32.09
84524;BME280;74765;44.538;18.668;2024-03-22T06:51:31;99309.88;;;20.57;30.63
84524;BME280;74765;44.538;18.668;2024-03-22T06:53:57;99306.84;;;21.44;29.69
84524;BME280;74765;44.538;18.668;2024-03-22T06:56:23;99305.25;;;22.57;27.91
84524;BME280;74765;44.538;18.668;2024-03-22T06:58:49;99307.56;;;23.57;26.47
84524;BME280;74765;44.538;18.668;2024-03-22T07:01:14;99312.72;;;23.63;26.14
84524;BME280;74765;44.538;18.668;2024-03-22T07:03:42;99306.69;;;24.56;25.74
84524;BME280;74765;44.538;18.668;2024-03-22T07:06:16;99307.13;;;25.80;23.41
84524;BME280;74765;44.538;18.668;2024-03-22T07:08:42;99304.13;;;25.76;23.39
84524;BME280;74765;44.538;18.668;2024-03-22T07:11:28;99309.31;;;24.22;25.46
84524;BME280;74765;44.538;18.668;2024-03-22T07:13:53;99303.63;;;23.98;25.71
84524;BME280;74765;44.538;18.668;2024-03-22T07:16:19;99306.53;;;25.20;25.37
84524;BME280;74765;44.538;18.668;2024-03-22T07:18:48;99305.03;;;26.62;23.44
84524;BME280;74765;44.538;18.668;2024-03-22T07:21:20;99307.31;;;25.25;24.98
84524;BME280;74765;44.538;18.668;2024-03-22T07:23:48;99302.50;;;24.73;24.11
